Nissho Maru No.18 — JL6369 — position and weather

sailwx.info

Track history (hours):
 
Tides and Currents Weather Stations Pressure Air Temp Water Temp Dewpoint Dewpoint Depression Visibility Wind Speed Wind Dir Waves Ship Positions

Nissho Maru No.18

Last reported at 2014-Jul-29 16:14 UTC. Time now 2014-Jul-30 13:14 UTC.
Position N 34°34' E 134°51'.

Length 65 m; draft 4 m.

Type: Tanker. MMSI: 431500465.

Date/timePositionNaut miles runAvg speedWind from/ knotsBaromVisibWave heightAir tempDewpointWater temp
2014-Jul-29 16:14N 34°34' E 134°51'811.2
2014-Jul-29 15:32N 34°38' E 134°60'9 9.5
2014-Jul-29 14:33N 34°29' E 135°04'1312.2
2014-Jul-29 13:29N 34°16' E 134°59'1111.9
2014-Jul-29 12:32N 34°05' E 135°01'168 9.3
2014-Jul-28 18:22N 34°29' E 138°23'4010.5
2014-Jul-28 14:31N 34°47' E 139°07'2110.8
2014-Jul-28 12:33N 35°01' E 139°26'1010.2
2014-Jul-28 11:33N 35°05' E 139°37'10 9.8
2014-Jul-28 10:33N 35°12' E 139°46'1010.4
2014-Jul-28 09:33N 35°22' E 139°42'9 9.3
2014-Jul-28 08:33N 35°31' E 139°46'0 0.2
2014-Jul-28 07:33N 35°31' E 139°46'0 0.0
2014-Jul-28 06:33N 35°31' E 139°46'0 0.0
2014-Jul-28 05:33N 35°31' E 139°46'0 0.0
2014-Jul-28 04:33N 35°31' E 139°46'2 2.2
2014-Jul-28 03:33N 35°30' E 139°49'2 1.5
2014-Jul-28 02:33N 35°31' E 139°51'5 4.8
2014-Jul-28 01:33N 35°31' E 139°45'0 0.0
2014-Jul-28 00:33N 35°31' E 139°45'0 0.0
2014-Jul-27 23:33N 35°31' E 139°45'0 0.2
2014-Jul-27 22:33N 35°31' E 139°45'4 3.6
2014-Jul-27 21:33N 35°29' E 139°48'0 0.0
2014-Jul-27 20:33N 35°29' E 139°48'0 0.0
2014-Jul-27 19:33N 35°29' E 139°48'0 0.0
2014-Jul-27 18:33N 35°29' E 139°48'0 0.0
2014-Jul-27 17:33N 35°29' E 139°48'0 0.0
2014-Jul-27 16:33N 35°29' E 139°48'0 0.0
2014-Jul-27 15:33N 35°29' E 139°48'0 0.0
2014-Jul-27 14:33N 35°29' E 139°48'0 0.0
2014-Jul-27 13:33N 35°29' E 139°48'0 0.0
2014-Jul-27 12:33N 35°29' E 139°48'0 0.0
2014-Jul-27 11:33N 35°29' E 139°48'0 0.0
2014-Jul-27 10:33N 35°29' E 139°48'5 4.5
2014-Jul-27 09:33N 35°26' E 139°44'5 4.6
2014-Jul-27 08:33N 35°25' E 139°39'0 0.0
2014-Jul-27 07:33N 35°25' E 139°39'0 0.0
2014-Jul-27 06:33N 35°25' E 139°39'0 0.0
2014-Jul-27 05:33N 35°25' E 139°39'0 0.0
2014-Jul-27 04:33N 35°25' E 139°39'1 0.9
2014-Jul-27 03:33N 35°24' E 139°40'4 3.8
2014-Jul-27 02:33N 35°27' E 139°43'5 4.6
2014-Jul-27 01:33N 35°31' E 139°45'0 0.0
2014-Jul-27 00:33N 35°31' E 139°45'0 0.0
2014-Jul-26 23:33N 35°31' E 139°45'0 0.1
2014-Jul-26 22:34N 35°31' E 139°45'4 3.8
2014-Jul-26 21:33N 35°29' E 139°49'0 0.1
2014-Jul-26 20:33N 35°29' E 139°49'0 0.0
2014-Jul-26 19:33N 35°29' E 139°49'0 0.0
2014-Jul-26 18:33N 35°29' E 139°49'0 0.0
2014-Jul-26 17:33N 35°29' E 139°49'0 0.0
2014-Jul-26 16:33N 35°29' E 139°49'0 0.0
2014-Jul-26 15:33N 35°29' E 139°49'0 0.0
2014-Jul-26 14:33N 35°29' E 139°49'0 0.0
2014-Jul-26 13:33N 35°29' E 139°49'0 0.0
2014-Jul-26 12:33N 35°29' E 139°49'0 0.0
2014-Jul-26 11:33N 35°29' E 139°49'0 0.0
2014-Jul-26 10:33N 35°29' E 139°49'0 0.0
2014-Jul-26 09:33N 35°29' E 139°49'0 0.0
2014-Jul-26 08:33N 35°29' E 139°49'0 0.0
2014-Jul-26 07:33N 35°29' E 139°49'0 0.0
2014-Jul-26 06:33N 35°29' E 139°49'0 0.0
2014-Jul-26 05:33N 35°29' E 139°49'8 8.0
2014-Jul-26 04:33N 35°24' E 139°42'3 2.6
2014-Jul-26 03:33N 35°25' E 139°39'0 0.0
2014-Jul-26 02:33N 35°25' E 139°39'0 0.0
2014-Jul-26 01:33N 35°25' E 139°39'0 0.0
2014-Jul-26 00:33N 35°25' E 139°39'0 0.0
2014-Jul-25 23:33N 35°25' E 139°39'2 2.3
2014-Jul-25 22:33N 35°23' E 139°40'0 0.1
2014-Jul-25 21:33N 35°23' E 139°40'0 0.0
2014-Jul-25 20:33N 35°23' E 139°40'0 0.0
2014-Jul-25 19:33N 35°23' E 139°40'0 0.0
2014-Jul-25 18:33N 35°23' E 139°40'0 0.1
2014-Jul-25 17:33N 35°23' E 139°40'0 0.0
2014-Jul-25 16:33N 35°23' E 139°40'0 0.0
2014-Jul-25 15:33N 35°23' E 139°40'0 0.0
2014-Jul-25 14:33N 35°23' E 139°40'0 0.0
2014-Jul-25 13:33N 35°23' E 139°40'0 0.0
2014-Jul-25 12:33N 35°23' E 139°40'0 0.0
2014-Jul-25 11:33N 35°23' E 139°40'0 0.0
2014-Jul-25 10:33N 35°23' E 139°40'0 0.0
2014-Jul-25 09:33N 35°23' E 139°40'0 0.0
2014-Jul-25 08:33N 35°23' E 139°40'0 0.0
2014-Jul-25 07:33N 35°23' E 139°40'0 0.0
2014-Jul-25 06:33N 35°23' E 139°40'2 1.8
2014-Jul-25 05:33N 35°24' E 139°42'8 7.7
2014-Jul-25 04:33N 35°31' E 139°45'0 0.0
2014-Jul-25 03:33N 35°31' E 139°45'0 0.0
2014-Jul-25 02:33N 35°31' E 139°45'0 0.0
2014-Jul-25 01:33N 35°31' E 139°45'3 3.1
2014-Jul-25 00:33N 35°30' E 139°48'1 1.3
2014-Jul-24 23:33N 35°29' E 139°49'0 0.0
2014-Jul-24 22:33N 35°29' E 139°49'0 0.0
2014-Jul-24 21:33N 35°29' E 139°49'0 0.0
2014-Jul-24 20:33N 35°29' E 139°49'0 0.0
2014-Jul-24 19:33N 35°29' E 139°49'0 0.0
2014-Jul-24 18:33N 35°29' E 139°49'0 0.0
2014-Jul-24 17:33N 35°29' E 139°49'0 0.0
2014-Jul-24 16:33N 35°29' E 139°49'0 0.0
2014-Jul-24 15:33N 35°29' E 139°49'5 4.7
2014-Jul-24 14:33N 35°24' E 139°46'10 9.8
2014-Jul-24 13:33N 35°15' E 139°47'1010.2
2014-Jul-24 12:33N 35°05' E 139°44'1110.9
2014-Jul-24 11:32N 34°58' E 139°33'1211.9
2014-Jul-24 10:32N 34°50' E 139°22'219 8.7
2014-Jul-23 09:30N 34°03' E 135°03'9 9.8
2014-Jul-23 08:32N 34°13' E 135°03'9 9.3
2014-Jul-23 07:33N 34°22' E 135°07'1010.2
2014-Jul-23 06:33N 34°29' E 135°15'8 1.9
2014-Jul-23 02:07N 34°32' E 135°25'0 0.0
2014-Jul-23 01:23N 34°32' E 135°25'0 0.0
2014-Jul-23 00:29N 34°32' E 135°25'1 1.6
2014-Jul-22 23:32N 34°32' E 135°23'3 2.6
2014-Jul-22 22:28N 34°31' E 135°20'0 0.0
2014-Jul-22 21:28N 34°31' E 135°20'0 0.0
2014-Jul-22 20:28N 34°31' E 135°20'0 0.0
2014-Jul-22 19:28N 34°31' E 135°20'0 0.0
2014-Jul-22 18:28N 34°31' E 135°20'0 0.1
2014-Jul-22 17:32N 34°31' E 135°20'0 0.0
2014-Jul-22 15:32N 34°31' E 135°20'0 0.0
2014-Jul-22 14:32N 34°31' E 135°20'0 0.0
2014-Jul-22 13:32N 34°31' E 135°20'0 0.0
2014-Jul-22 12:32N 34°31' E 135°20'0 0.0
2014-Jul-22 11:32N 34°31' E 135°20'0 0.0
2014-Jul-22 10:14N 34°31' E 135°20'0 0.3
2014-Jul-22 09:33N 34°31' E 135°20'1511.8
2014-Jul-22 08:17N 34°21' E 135°06'912.2
2014-Jul-22 07:33N 34°13' E 135°03'1212.5
2014-Jul-22 06:33N 34°00' E 135°03'208 9.9
2014-Jul-21 09:33N 34°49' E 139°08'2110.6
2014-Jul-21 07:33N 35°02' E 139°29'1111.0
2014-Jul-21 06:33N 35°06' E 139°41'1110.7
2014-Jul-21 05:33N 35°17' E 139°45'10 9.8
2014-Jul-21 04:33N 35°26' E 139°45'5 4.8
2014-Jul-21 03:33N 35°31' E 139°45'0 0.0
2014-Jul-21 02:33N 35°31' E 139°45'0 0.0
2014-Jul-21 01:33N 35°31' E 139°45'1 1.4
2014-Jul-21 00:33N 35°31' E 139°46'2 2.5
2014-Jul-20 23:33N 35°29' E 139°48'0 0.0
2014-Jul-20 22:33N 35°29' E 139°48'0 0.0
2014-Jul-20 21:33N 35°29' E 139°48'0 0.0
2014-Jul-20 20:33N 35°29' E 139°48'0 0.0
2014-Jul-20 19:33N 35°29' E 139°48'0 0.0
2014-Jul-20 18:33N 35°29' E 139°48'0 0.0
2014-Jul-20 17:33N 35°29' E 139°48'0 0.0
2014-Jul-20 16:33N 35°29' E 139°48'0 0.1
2014-Jul-20 15:33N 35°29' E 139°48'10 9.7
2014-Jul-20 14:34N 35°20' E 139°44'10 9.9
2014-Jul-20 13:33N 35°10' E 139°46'1010.3
2014-Jul-20 12:33N 35°01' E 139°39'  
Track history (hours):
 
Tides and Currents Weather Stations Pressure Air Temp Water Temp Dewpoint Dewpoint Depression Visibility Wind Speed Wind Dir Waves Ship Positions

Nissho Maru No.18

Last reported at 2014-Jul-29 16:14 UTC. Time now 2014-Jul-30 13:14 UTC.
Position N 34°34' E 134°51'.

Length 65 m; draft 4 m.

Type: Tanker. MMSI: 431500465.

Date/timePositionNaut miles runAvg speedWind from/ knotsBaromVisibWave heightAir tempDewpointWater temp
2014-Jul-29 16:14N 34°34' E 134°51'811.2
2014-Jul-29 15:32N 34°38' E 134°60'9 9.5
2014-Jul-29 14:33N 34°29' E 135°04'1312.2
2014-Jul-29 13:29N 34°16' E 134°59'1111.9
2014-Jul-29 12:32N 34°05' E 135°01'168 9.3
2014-Jul-28 18:22N 34°29' E 138°23'4010.5
2014-Jul-28 14:31N 34°47' E 139°07'2110.8
2014-Jul-28 12:33N 35°01' E 139°26'1010.2
2014-Jul-28 11:33N 35°05' E 139°37'10 9.8
2014-Jul-28 10:33N 35°12' E 139°46'1010.4
2014-Jul-28 09:33N 35°22' E 139°42'9 9.3
2014-Jul-28 08:33N 35°31' E 139°46'0 0.2
2014-Jul-28 07:33N 35°31' E 139°46'0 0.0
2014-Jul-28 06:33N 35°31' E 139°46'0 0.0
2014-Jul-28 05:33N 35°31' E 139°46'0 0.0
2014-Jul-28 04:33N 35°31' E 139°46'2 2.2
2014-Jul-28 03:33N 35°30' E 139°49'2 1.5
2014-Jul-28 02:33N 35°31' E 139°51'5 4.8
2014-Jul-28 01:33N 35°31' E 139°45'0 0.0
2014-Jul-28 00:33N 35°31' E 139°45'0 0.0
2014-Jul-27 23:33N 35°31' E 139°45'0 0.2
2014-Jul-27 22:33N 35°31' E 139°45'4 3.6
2014-Jul-27 21:33N 35°29' E 139°48'0 0.0
2014-Jul-27 20:33N 35°29' E 139°48'0 0.0
2014-Jul-27 19:33N 35°29' E 139°48'0 0.0
2014-Jul-27 18:33N 35°29' E 139°48'0 0.0
2014-Jul-27 17:33N 35°29' E 139°48'0 0.0
2014-Jul-27 16:33N 35°29' E 139°48'0 0.0
2014-Jul-27 15:33N 35°29' E 139°48'0 0.0
2014-Jul-27 14:33N 35°29' E 139°48'0 0.0
2014-Jul-27 13:33N 35°29' E 139°48'0 0.0
2014-Jul-27 12:33N 35°29' E 139°48'0 0.0
2014-Jul-27 11:33N 35°29' E 139°48'0 0.0
2014-Jul-27 10:33N 35°29' E 139°48'5 4.5
2014-Jul-27 09:33N 35°26' E 139°44'5 4.6
2014-Jul-27 08:33N 35°25' E 139°39'0 0.0
2014-Jul-27 07:33N 35°25' E 139°39'0 0.0
2014-Jul-27 06:33N 35°25' E 139°39'0 0.0
2014-Jul-27 05:33N 35°25' E 139°39'0 0.0
2014-Jul-27 04:33N 35°25' E 139°39'1 0.9
2014-Jul-27 03:33N 35°24' E 139°40'4 3.8
2014-Jul-27 02:33N 35°27' E 139°43'5 4.6
2014-Jul-27 01:33N 35°31' E 139°45'0 0.0
2014-Jul-27 00:33N 35°31' E 139°45'0 0.0
2014-Jul-26 23:33N 35°31' E 139°45'0 0.1
2014-Jul-26 22:34N 35°31' E 139°45'4 3.8
2014-Jul-26 21:33N 35°29' E 139°49'0 0.1
2014-Jul-26 20:33N 35°29' E 139°49'0 0.0
2014-Jul-26 19:33N 35°29' E 139°49'0 0.0
2014-Jul-26 18:33N 35°29' E 139°49'0 0.0
2014-Jul-26 17:33N 35°29' E 139°49'0 0.0
2014-Jul-26 16:33N 35°29' E 139°49'0 0.0
2014-Jul-26 15:33N 35°29' E 139°49'0 0.0
2014-Jul-26 14:33N 35°29' E 139°49'0 0.0
2014-Jul-26 13:33N 35°29' E 139°49'0 0.0
2014-Jul-26 12:33N 35°29' E 139°49'0 0.0
2014-Jul-26 11:33N 35°29' E 139°49'0 0.0
2014-Jul-26 10:33N 35°29' E 139°49'0 0.0
2014-Jul-26 09:33N 35°29' E 139°49'0 0.0
2014-Jul-26 08:33N 35°29' E 139°49'0 0.0
2014-Jul-26 07:33N 35°29' E 139°49'0 0.0
2014-Jul-26 06:33N 35°29' E 139°49'0 0.0
2014-Jul-26 05:33N 35°29' E 139°49'8 8.0
2014-Jul-26 04:33N 35°24' E 139°42'3 2.6
2014-Jul-26 03:33N 35°25' E 139°39'0 0.0
2014-Jul-26 02:33N 35°25' E 139°39'0 0.0
2014-Jul-26 01:33N 35°25' E 139°39'0 0.0
2014-Jul-26 00:33N 35°25' E 139°39'0 0.0
2014-Jul-25 23:33N 35°25' E 139°39'2 2.3
2014-Jul-25 22:33N 35°23' E 139°40'0 0.1
2014-Jul-25 21:33N 35°23' E 139°40'0 0.0
2014-Jul-25 20:33N 35°23' E 139°40'0 0.0
2014-Jul-25 19:33N 35°23' E 139°40'0 0.0
2014-Jul-25 18:33N 35°23' E 139°40'0 0.1
2014-Jul-25 17:33N 35°23' E 139°40'0 0.0
2014-Jul-25 16:33N 35°23' E 139°40'0 0.0
2014-Jul-25 15:33N 35°23' E 139°40'0 0.0
2014-Jul-25 14:33N 35°23' E 139°40'0 0.0
2014-Jul-25 13:33N 35°23' E 139°40'0 0.0
2014-Jul-25 12:33N 35°23' E 139°40'0 0.0
2014-Jul-25 11:33N 35°23' E 139°40'0 0.0
2014-Jul-25 10:33N 35°23' E 139°40'0 0.0
2014-Jul-25 09:33N 35°23' E 139°40'0 0.0
2014-Jul-25 08:33N 35°23' E 139°40'0 0.0
2014-Jul-25 07:33N 35°23' E 139°40'0 0.0
2014-Jul-25 06:33N 35°23' E 139°40'2 1.8
2014-Jul-25 05:33N 35°24' E 139°42'8 7.7
2014-Jul-25 04:33N 35°31' E 139°45'0 0.0
2014-Jul-25 03:33N 35°31' E 139°45'0 0.0
2014-Jul-25 02:33N 35°31' E 139°45'0 0.0
2014-Jul-25 01:33N 35°31' E 139°45'3 3.1
2014-Jul-25 00:33N 35°30' E 139°48'1 1.3
2014-Jul-24 23:33N 35°29' E 139°49'0 0.0
2014-Jul-24 22:33N 35°29' E 139°49'0 0.0
2014-Jul-24 21:33N 35°29' E 139°49'0 0.0
2014-Jul-24 20:33N 35°29' E 139°49'0 0.0
2014-Jul-24 19:33N 35°29' E 139°49'0 0.0
2014-Jul-24 18:33N 35°29' E 139°49'0 0.0
2014-Jul-24 17:33N 35°29' E 139°49'0 0.0
2014-Jul-24 16:33N 35°29' E 139°49'0 0.0
2014-Jul-24 15:33N 35°29' E 139°49'5 4.7
2014-Jul-24 14:33N 35°24' E 139°46'10 9.8
2014-Jul-24 13:33N 35°15' E 139°47'1010.2
2014-Jul-24 12:33N 35°05' E 139°44'1110.9
2014-Jul-24 11:32N 34°58' E 139°33'1211.9
2014-Jul-24 10:32N 34°50' E 139°22'219 8.7
2014-Jul-23 09:30N 34°03' E 135°03'9 9.8
2014-Jul-23 08:32N 34°13' E 135°03'9 9.3
2014-Jul-23 07:33N 34°22' E 135°07'1010.2
2014-Jul-23 06:33N 34°29' E 135°15'8 1.9
2014-Jul-23 02:07N 34°32' E 135°25'0 0.0
2014-Jul-23 01:23N 34°32' E 135°25'0 0.0
2014-Jul-23 00:29N 34°32' E 135°25'1 1.6
2014-Jul-22 23:32N 34°32' E 135°23'3 2.6
2014-Jul-22 22:28N 34°31' E 135°20'0 0.0
2014-Jul-22 21:28N 34°31' E 135°20'0 0.0
2014-Jul-22 20:28N 34°31' E 135°20'0 0.0
2014-Jul-22 19:28N 34°31' E 135°20'0 0.0
2014-Jul-22 18:28N 34°31' E 135°20'0 0.1
2014-Jul-22 17:32N 34°31' E 135°20'0 0.0
2014-Jul-22 15:32N 34°31' E 135°20'0 0.0
2014-Jul-22 14:32N 34°31' E 135°20'0 0.0
2014-Jul-22 13:32N 34°31' E 135°20'0 0.0
2014-Jul-22 12:32N 34°31' E 135°20'0 0.0
2014-Jul-22 11:32N 34°31' E 135°20'0 0.0
2014-Jul-22 10:14N 34°31' E 135°20'0 0.3
2014-Jul-22 09:33N 34°31' E 135°20'1511.8
2014-Jul-22 08:17N 34°21' E 135°06'912.2
2014-Jul-22 07:33N 34°13' E 135°03'1212.5
2014-Jul-22 06:33N 34°00' E 135°03'208 9.9
2014-Jul-21 09:33N 34°49' E 139°08'2110.6
2014-Jul-21 07:33N 35°02' E 139°29'1111.0
2014-Jul-21 06:33N 35°06' E 139°41'1110.7
2014-Jul-21 05:33N 35°17' E 139°45'10 9.8
2014-Jul-21 04:33N 35°26' E 139°45'5 4.8
2014-Jul-21 03:33N 35°31' E 139°45'0 0.0
2014-Jul-21 02:33N 35°31' E 139°45'0 0.0
2014-Jul-21 01:33N 35°31' E 139°45'1 1.4
2014-Jul-21 00:33N 35°31' E 139°46'2 2.5
2014-Jul-20 23:33N 35°29' E 139°48'0 0.0
2014-Jul-20 22:33N 35°29' E 139°48'0 0.0
2014-Jul-20 21:33N 35°29' E 139°48'0 0.0
2014-Jul-20 20:33N 35°29' E 139°48'0 0.0
2014-Jul-20 19:33N 35°29' E 139°48'0 0.0
2014-Jul-20 18:33N 35°29' E 139°48'0 0.0
2014-Jul-20 17:33N 35°29' E 139°48'0 0.0
2014-Jul-20 16:33N 35°29' E 139°48'0 0.1
2014-Jul-20 15:33N 35°29' E 139°48'10 9.7
2014-Jul-20 14:34N 35°20' E 139°44'10 9.9
2014-Jul-20 13:33N 35°10' E 139°46'1010.3
2014-Jul-20 12:33N 35°01' E 139°39'  

Dump ship's entire track history